createdAt,value
2023-02-08T00:01:47.437Z,33.35
2023-02-08T00:04:32.666Z,34.00
2023-02-08T00:07:18.004Z,37.63
2023-02-08T00:10:05.221Z,36.70
2023-02-08T00:12:52.156Z,37.80
2023-02-08T00:15:42.634Z,36.58
2023-02-08T00:18:27.794Z,36.15
2023-02-08T00:21:16.065Z,38.28
2023-02-08T00:24:01.886Z,37.60
2023-02-08T00:26:46.974Z,36.63
2023-02-08T00:29:32.384Z,36.85
2023-02-08T00:32:17.991Z,36.63
2023-02-08T00:35:03.253Z,39.08
2023-02-08T00:37:50.080Z,39.17
2023-02-08T00:40:36.534Z,39.80
2023-02-08T00:43:21.901Z,39.35
2023-02-08T00:46:08.137Z,37.63
2023-02-08T00:48:54.281Z,39.30
2023-02-08T00:51:39.577Z,38.33
2023-02-08T00:54:24.735Z,40.28
2023-02-08T00:57:10.271Z,31.83
2023-02-08T00:59:55.951Z,45.03
2023-02-08T01:02:41.288Z,43.08
2023-02-08T01:05:26.888Z,39.47
2023-02-08T01:08:12.174Z,38.50
2023-02-08T01:11:05.889Z,39.05
2023-02-08T01:13:54.386Z,38.65
2023-02-08T01:16:40.071Z,40.03
2023-02-08T01:19:25.307Z,39.50
2023-02-08T01:22:10.602Z,39.22
2023-02-08T01:24:56.091Z,39.20
2023-02-08T01:27:41.507Z,37.03
2023-02-08T01:30:26.945Z,37.85
2023-02-08T01:33:12.325Z,37.50
2023-02-08T01:35:57.835Z,39.78
2023-02-08T01:38:44.597Z,36.58
2023-02-08T01:41:36.333Z,39.15
2023-02-08T01:45:20.784Z,39.33
2023-02-08T01:48:14.781Z,36.75
2023-02-08T01:51:03.225Z,37.25
2023-02-08T01:53:52.771Z,35.72
2023-02-08T01:56:41.401Z,35.10
2023-02-08T01:59:34.056Z,34.45
2023-02-08T02:02:22.834Z,33.85
2023-02-08T02:05:08.826Z,34.05
2023-02-08T02:07:56.844Z,32.83
2023-02-08T02:10:43.109Z,33.65
2023-02-08T02:13:29.116Z,32.53
2023-02-08T02:16:14.462Z,31.38
2023-02-08T02:18:59.870Z,31.58
2023-02-08T02:22:32.708Z,31.58
2023-02-08T02:25:29.757Z,31.05
2023-02-08T02:28:43.073Z,29.33
2023-02-08T02:31:41.376Z,30.85
2023-02-08T02:34:40.760Z,28.77
2023-02-08T02:37:37.561Z,28.35
2023-02-08T02:40:36.418Z,29.48
2023-02-08T02:43:54.003Z,27.38
2023-02-08T02:46:43.103Z,27.95
2023-02-08T02:52:42.204Z,26.90
2023-02-08T02:55:33.616Z,26.92
2023-02-08T02:58:23.778Z,27.35
2023-02-08T03:01:09.314Z,25.20
2023-02-08T03:03:55.267Z,27.60
2023-02-08T03:06:56.953Z,27.25
2023-02-08T03:09:45.433Z,28.17
2023-02-08T03:12:49.616Z,28.60
2023-02-08T03:16:19.369Z,28.00
2023-02-08T03:19:20.157Z,27.67
2023-02-08T03:22:28.447Z,26.95
2023-02-08T03:25:52.404Z,26.13
2023-02-08T03:28:50.925Z,24.92
2023-02-08T03:31:49.714Z,25.48
2023-02-08T03:34:52.982Z,24.88
2023-02-08T03:37:51.963Z,25.15
2023-02-08T03:40:45.347Z,23.92
2023-02-08T03:43:37.234Z,23.73
2023-02-08T03:46:48.546Z,24.17
2023-02-08T03:49:36.478Z,25.10
2023-02-08T03:52:22.588Z,25.98
2023-02-08T03:55:13.300Z,25.25
2023-02-08T03:58:11.887Z,24.52
2023-02-08T04:01:26.612Z,25.52
2023-02-08T04:04:14.780Z,24.95
2023-02-08T04:07:00.322Z,25.48
2023-02-08T04:09:46.093Z,24.42
2023-02-08T04:12:31.355Z,25.13
2023-02-08T04:15:16.945Z,25.85
2023-02-08T04:18:02.288Z,25.25
2023-02-08T04:20:47.877Z,23.50
2023-02-08T04:23:33.221Z,24.60
2023-02-08T04:26:18.589Z,25.05
2023-02-08T04:29:04.127Z,24.05
2023-02-08T04:31:49.717Z,24.48
2023-02-08T04:34:35.153Z,23.25
2023-02-08T04:37:20.625Z,23.58
2023-02-08T04:40:06.222Z,22.25
2023-02-08T04:42:51.584Z,23.70
2023-02-08T04:45:37.653Z,25.10
2023-02-08T04:48:23.337Z,23.98
2023-02-08T04:51:08.504Z,23.08
2023-02-08T04:53:53.849Z,23.13
2023-02-08T04:56:39.397Z,23.17
2023-02-08T04:59:24.662Z,22.98
2023-02-08T05:02:09.849Z,22.05
2023-02-08T05:04:55.046Z,21.90
2023-02-08T05:07:40.668Z,22.05
2023-02-08T05:10:26.696Z,22.77
2023-02-08T05:13:11.926Z,23.15
2023-02-08T05:15:57.819Z,22.38
2023-02-08T05:18:43.291Z,22.08
2023-02-08T05:21:28.688Z,22.67
2023-02-08T05:24:13.902Z,22.02
2023-02-08T05:26:59.329Z,22.83
2023-02-08T05:29:44.559Z,22.17
2023-02-08T05:32:29.968Z,23.63
2023-02-08T05:35:15.126Z,23.77
2023-02-08T05:38:00.614Z,23.10
2023-02-08T05:40:45.871Z,22.65
2023-02-08T05:43:31.145Z,24.45
2023-02-08T05:46:16.441Z,23.52
2023-02-08T05:49:01.727Z,22.48
2023-02-08T05:51:46.769Z,23.08
2023-02-08T05:54:31.954Z,22.48
2023-02-08T05:57:17.440Z,23.52
2023-02-08T06:00:04.778Z,22.02
2023-02-08T06:02:50.031Z,22.90
2023-02-08T06:05:37.949Z,24.98
2023-02-08T06:08:23.398Z,25.02
2023-02-08T06:11:08.896Z,23.20
2023-02-08T06:13:54.398Z,24.42
2023-02-08T06:16:40.025Z,23.73
2023-02-08T06:19:25.387Z,23.30
2023-02-08T06:22:10.726Z,23.40
2023-02-08T06:24:55.912Z,23.60
2023-02-08T06:27:41.216Z,24.27
2023-02-08T06:30:26.524Z,24.85
2023-02-08T06:33:13.409Z,23.45
2023-02-08T06:35:59.806Z,22.92
2023-02-08T06:38:45.015Z,24.90
2023-02-08T06:41:30.109Z,24.85
2023-02-08T06:44:15.530Z,23.00
2023-02-08T06:47:00.748Z,25.70
2023-02-08T06:49:45.943Z,24.17
2023-02-08T06:52:31.612Z,25.60
2023-02-08T06:55:16.795Z,24.55
2023-02-08T06:58:02.084Z,25.40
2023-02-08T07:00:47.272Z,25.42
2023-02-08T07:03:32.956Z,25.27
2023-02-08T07:06:19.879Z,25.35
2023-02-08T07:09:05.103Z,25.92
2023-02-08T07:11:50.706Z,26.42
2023-02-08T07:14:39.122Z,27.35
2023-02-08T07:17:24.217Z,19.65
2023-02-08T07:20:11.466Z,24.25
2023-02-08T07:22:56.525Z,26.02
2023-02-08T07:25:42.032Z,23.55
2023-02-08T07:28:27.712Z,26.63
2023-02-08T07:31:16.037Z,25.25
2023-02-08T07:34:01.199Z,24.83
2023-02-08T07:36:46.587Z,25.38
2023-02-08T07:39:32.118Z,25.30
2023-02-08T07:42:17.659Z,24.42
2023-02-08T07:45:13.407Z,25.05
2023-02-08T07:47:58.910Z,24.13
2023-02-08T07:50:44.469Z,24.98
2023-02-08T07:53:30.773Z,25.83
2023-02-08T07:56:16.107Z,25.13
2023-02-08T07:59:01.564Z,25.67
2023-02-08T08:01:47.091Z,24.83
2023-02-08T08:04:32.468Z,25.50
2023-02-08T08:07:18.019Z,25.25
2023-02-08T08:10:04.573Z,23.33
2023-02-08T08:12:49.721Z,24.90
2023-02-08T08:15:35.218Z,24.25
2023-02-08T08:18:20.393Z,25.35
2023-02-08T08:21:06.500Z,24.27
2023-02-08T08:23:51.431Z,25.85
2023-02-08T08:26:36.902Z,24.23
2023-02-08T08:29:22.369Z,24.38
2023-02-08T08:32:08.470Z,24.60
2023-02-08T08:34:54.426Z,24.55
2023-02-08T08:37:39.887Z,23.65
2023-02-08T08:40:25.288Z,25.08
2023-02-08T08:43:10.514Z,24.83
2023-02-08T08:45:55.730Z,26.20
2023-02-08T08:48:41.215Z,25.45
2023-02-08T08:51:26.548Z,26.30
2023-02-08T08:54:12.111Z,27.05
2023-02-08T08:56:57.351Z,27.55
2023-02-08T08:59:42.698Z,27.38
2023-02-08T09:02:28.193Z,29.45
2023-02-08T09:05:13.702Z,27.00
2023-02-08T09:08:01.316Z,27.05
2023-02-08T09:10:46.605Z,26.60
2023-02-08T09:13:32.073Z,27.33
2023-02-08T09:16:18.021Z,26.73
2023-02-08T09:19:08.214Z,27.58
2023-02-08T09:21:53.376Z,27.83
2023-02-08T09:24:39.941Z,28.20
2023-02-08T09:27:25.426Z,29.02
2023-02-08T09:30:11.231Z,27.20
2023-02-08T09:32:56.546Z,30.35
2023-02-08T09:35:44.253Z,28.48
2023-02-08T09:38:29.798Z,27.95
2023-02-08T09:41:33.828Z,28.98
2023-02-08T09:44:25.242Z,27.67
2023-02-08T09:47:20.958Z,28.52
2023-02-08T09:50:40.418Z,28.63
2023-02-08T09:53:35.110Z,25.40
2023-02-08T09:56:28.068Z,27.63
2023-02-08T09:59:21.124Z,28.15
2023-02-08T10:02:26.838Z,29.33
2023-02-08T10:05:15.700Z,29.25
2023-02-08T10:08:01.760Z,30.17
2023-02-08T10:10:54.878Z,29.77
2023-02-08T10:13:43.472Z,30.23
2023-02-08T10:16:50.869Z,30.08
2023-02-08T10:19:41.019Z,29.25
2023-02-08T10:22:49.680Z,29.17
2023-02-08T10:25:47.138Z,29.35
2023-02-08T10:28:54.325Z,27.38
2023-02-08T10:31:46.093Z,30.13
2023-02-08T10:34:52.535Z,28.95
2023-02-08T10:37:42.062Z,26.83
2023-02-08T10:40:32.608Z,27.90
2023-02-08T10:43:36.410Z,28.65
2023-02-08T10:46:37.878Z,28.33
2023-02-08T10:49:22.989Z,27.55
2023-02-08T10:52:08.491Z,30.80
2023-02-08T10:54:57.503Z,28.52
2023-02-08T10:57:44.417Z,29.52
2023-02-08T11:00:40.474Z,30.67
2023-02-08T11:03:29.219Z,29.52
2023-02-08T11:06:27.735Z,29.35
2023-02-08T11:09:30.663Z,28.77
2023-02-08T11:12:20.811Z,29.05
2023-02-08T11:15:20.870Z,28.23
2023-02-08T11:18:07.941Z,29.15
2023-02-08T11:20:59.735Z,29.60
2023-02-08T11:23:51.339Z,27.63
2023-02-08T11:26:37.707Z,30.27
2023-02-08T11:29:29.130Z,28.83
2023-02-08T11:32:19.965Z,28.67
2023-02-08T11:35:22.726Z,29.08
2023-02-08T11:38:19.312Z,26.40
2023-02-08T11:41:15.734Z,27.38
2023-02-08T11:44:06.714Z,28.35
2023-02-08T11:46:53.727Z,29.75
2023-02-08T11:49:41.646Z,26.73
2023-02-08T11:52:33.243Z,28.23
2023-02-08T11:55:18.378Z,27.88
2023-02-08T11:58:17.920Z,28.55
2023-02-08T12:01:18.648Z,29.40
2023-02-08T12:04:07.721Z,27.23
2023-02-08T12:07:17.330Z,29.10
2023-02-08T12:10:15.002Z,28.88
2023-02-08T12:13:12.528Z,28.17
2023-02-08T12:16:03.553Z,27.77
2023-02-08T12:19:07.692Z,30.17
2023-02-08T12:22:05.940Z,29.83
2023-02-08T12:25:14.394Z,28.17
2023-02-08T12:28:14.138Z,29.52
2023-02-08T12:31:16.578Z,29.67
2023-02-08T12:34:17.644Z,29.83
2023-02-08T12:37:49.362Z,31.00
2023-02-08T12:40:59.392Z,30.48
2023-02-08T12:44:03.251Z,29.15
2023-02-08T12:46:54.623Z,28.95
2023-02-08T12:49:55.128Z,28.23
2023-02-08T12:53:03.232Z,30.05
2023-02-08T12:55:51.131Z,29.85
2023-02-08T12:58:50.028Z,30.15
2023-02-08T13:01:43.156Z,22.90
2023-02-08T13:04:46.134Z,28.63
2023-02-08T13:07:38.597Z,30.33
2023-02-08T13:10:40.640Z,28.88
2023-02-08T13:13:39.258Z,29.95
2023-02-08T13:16:30.613Z,27.45
2023-02-08T13:19:59.731Z,26.38
2023-02-08T13:22:46.903Z,21.70
2023-02-08T13:25:37.141Z,29.23
2023-02-08T13:28:24.397Z,28.90
2023-02-08T13:31:20.283Z,28.67
2023-02-08T13:34:14.575Z,28.00
2023-02-08T13:37:07.097Z,27.27
2023-02-08T13:40:08.429Z,30.08
2023-02-08T13:43:34.800Z,29.00
2023-02-08T13:46:23.101Z,26.67
2023-02-08T13:49:46.348Z,30.67
2023-02-08T13:52:47.541Z,28.60
2023-02-08T13:55:57.411Z,29.02
2023-02-08T13:58:42.740Z,29.30
2023-02-08T14:01:33.037Z,29.35
2023-02-08T14:04:31.980Z,28.70
2023-02-08T14:07:29.967Z,26.83
2023-02-08T14:10:21.101Z,27.83
2023-02-08T14:13:22.992Z,28.35
2023-02-08T14:16:29.219Z,27.73
2023-02-08T14:19:21.962Z,26.33
2023-02-08T14:22:13.479Z,27.63
2023-02-08T14:25:01.957Z,26.75
2023-02-08T14:27:53.881Z,25.55
2023-02-08T14:30:39.633Z,26.67
2023-02-08T14:33:37.367Z,28.13
2023-02-08T14:36:27.651Z,27.73
2023-02-08T14:39:24.406Z,27.40
2023-02-08T14:42:13.908Z,27.70
2023-02-08T14:45:00.573Z,28.38
2023-02-08T14:47:48.864Z,27.80
2023-02-08T14:50:39.896Z,26.58
2023-02-08T14:53:46.842Z,26.17
2023-02-08T14:56:37.269Z,27.52
2023-02-08T14:59:27.389Z,28.73
2023-02-08T15:02:20.032Z,29.50
2023-02-08T15:05:09.994Z,28.55
2023-02-08T15:07:58.039Z,28.33
2023-02-08T15:10:45.090Z,28.42
2023-02-08T15:13:31.174Z,29.58
2023-02-08T15:16:16.987Z,28.50
2023-02-08T15:19:05.061Z,29.10
2023-02-08T15:21:50.899Z,29.25
2023-02-08T15:24:36.201Z,29.58
2023-02-08T15:27:27.379Z,27.13
2023-02-08T15:30:27.073Z,26.23
2023-02-08T15:33:17.871Z,25.30
2023-02-08T15:36:14.822Z,24.58
2023-02-08T15:39:24.882Z,24.65
2023-02-08T15:42:18.873Z,25.42
2023-02-08T15:45:04.920Z,25.15
2023-02-08T15:47:51.476Z,26.10
2023-02-08T15:50:37.240Z,25.00
2023-02-08T15:53:23.746Z,26.50
2023-02-08T15:56:09.808Z,27.08
2023-02-08T15:58:59.218Z,25.27
2023-02-08T16:01:47.904Z,24.88
2023-02-08T16:04:42.745Z,24.63
2023-02-08T16:07:33.751Z,24.40
2023-02-08T16:10:30.822Z,23.60
2023-02-08T16:13:26.300Z,22.73
2023-02-08T16:16:26.337Z,23.30
2023-02-08T16:19:32.006Z,24.05
2023-02-08T16:22:29.425Z,23.95
2023-02-08T16:25:35.785Z,24.55
2023-02-08T16:28:27.945Z,25.60
2023-02-08T16:31:20.612Z,24.23
2023-02-08T16:34:13.292Z,24.55
2023-02-08T16:36:59.092Z,24.00
2023-02-08T16:39:54.701Z,24.30
2023-02-08T16:42:40.264Z,24.73
2023-02-08T16:45:25.587Z,25.15
2023-02-08T16:48:35.913Z,24.05
2023-02-08T16:51:23.694Z,23.63
2023-02-08T16:54:13.528Z,24.55
2023-02-08T16:57:04.625Z,24.80
2023-02-08T16:59:50.024Z,24.42
2023-02-08T17:02:35.484Z,24.58
2023-02-08T17:05:23.974Z,23.38
2023-02-08T17:08:16.958Z,25.40
2023-02-08T17:11:02.318Z,24.02
2023-02-08T17:13:47.826Z,24.67
2023-02-08T17:16:35.147Z,24.52
2023-02-08T17:19:22.383Z,25.90
2023-02-08T17:22:07.364Z,25.40
2023-02-08T17:24:53.195Z,25.42
2023-02-08T17:27:38.950Z,23.52
2023-02-08T17:30:25.663Z,24.38
2023-02-08T17:33:20.405Z,23.85
2023-02-08T17:36:10.489Z,26.20
2023-02-08T17:38:55.624Z,23.90
2023-02-08T17:41:41.112Z,24.35
2023-02-08T17:44:26.478Z,24.17
2023-02-08T17:47:11.690Z,24.23
2023-02-08T17:49:57.526Z,24.90
2023-02-08T17:52:42.873Z,24.55
2023-02-08T17:55:28.278Z,24.52
2023-02-08T17:58:13.805Z,24.80
2023-02-08T18:00:59.056Z,25.05
2023-02-08T18:03:50.432Z,25.00
2023-02-08T18:06:36.114Z,24.83
2023-02-08T18:09:21.499Z,23.50
2023-02-08T18:12:07.189Z,24.75
2023-02-08T18:14:52.776Z,24.85
2023-02-08T18:17:38.546Z,24.85
2023-02-08T18:20:23.763Z,25.05
2023-02-08T18:23:09.246Z,24.15
2023-02-08T18:26:07.048Z,23.25
2023-02-08T18:28:52.856Z,24.02
2023-02-08T18:31:38.745Z,23.33
2023-02-08T18:34:24.140Z,22.60
2023-02-08T18:37:10.154Z,22.48
2023-02-08T18:39:55.693Z,22.38
2023-02-08T18:42:41.179Z,21.70
2023-02-08T18:45:26.475Z,22.60
2023-02-08T18:48:13.148Z,21.40
2023-02-08T18:51:02.791Z,23.25
2023-02-08T18:53:51.558Z,22.92
2023-02-08T18:56:36.938Z,17.85
2023-02-08T18:59:22.683Z,22.63
2023-02-08T19:02:08.573Z,22.33
2023-02-08T19:04:53.749Z,22.50
2023-02-08T19:07:40.040Z,23.83
2023-02-08T19:10:25.573Z,23.88
2023-02-08T19:13:10.897Z,22.85
2023-02-08T19:15:56.159Z,23.80
2023-02-08T19:18:41.693Z,23.65
2023-02-08T19:21:28.509Z,23.65
2023-02-08T19:24:15.227Z,22.77
2023-02-08T19:27:00.991Z,23.05
2023-02-08T19:29:46.223Z,22.50
2023-02-08T19:32:31.399Z,21.05
2023-02-08T19:35:16.681Z,22.85
2023-02-08T19:38:01.760Z,22.27
2023-02-08T19:40:53.620Z,20.92
2023-02-08T19:43:39.100Z,21.40
2023-02-08T19:46:27.476Z,21.38
2023-02-08T19:49:21.158Z,22.70
2023-02-08T19:52:06.391Z,22.15
2023-02-08T19:54:52.868Z,21.48
2023-02-08T19:57:39.992Z,20.85
2023-02-08T20:00:26.575Z,21.85
2023-02-08T20:03:21.531Z,21.15
2023-02-08T20:06:14.722Z,21.13
2023-02-08T20:09:03.917Z,20.95
2023-02-08T20:11:57.110Z,21.00
2023-02-08T20:14:43.564Z,20.83
2023-02-08T20:17:29.012Z,21.65
2023-02-08T20:20:14.555Z,22.05
2023-02-08T20:23:02.037Z,22.30
2023-02-08T20:25:47.440Z,22.65
2023-02-08T20:28:32.681Z,21.70
2023-02-08T20:31:22.286Z,21.10
2023-02-08T20:37:06.441Z,20.48
2023-02-08T20:39:52.227Z,16.02
2023-02-08T20:42:37.550Z,20.98
2023-02-08T20:45:22.938Z,19.52
2023-02-08T20:48:11.159Z,21.00
2023-02-08T20:51:04.447Z,21.15
2023-02-08T20:53:52.362Z,20.02
2023-02-08T20:56:38.595Z,19.48
2023-02-08T20:59:24.122Z,20.77
2023-02-08T21:02:16.831Z,19.73
2023-02-08T21:05:02.183Z,18.05
2023-02-08T21:07:47.436Z,20.15
2023-02-08T21:10:36.593Z,19.83
2023-02-08T21:13:22.007Z,19.20
2023-02-08T21:16:10.095Z,19.88
2023-02-08T21:18:57.054Z,19.33
2023-02-08T21:21:42.699Z,17.63
2023-02-08T21:24:28.921Z,19.33
2023-02-08T21:27:14.445Z,19.40
2023-02-08T21:29:59.856Z,18.67
2023-02-08T21:32:45.562Z,17.98
2023-02-08T21:35:31.103Z,19.27
2023-02-08T21:38:16.735Z,17.33
2023-02-08T21:41:10.161Z,20.17
2023-02-08T21:43:59.007Z,18.30
2023-02-08T21:46:44.882Z,17.98
2023-02-08T21:49:48.391Z,17.45
2023-02-08T21:52:52.227Z,17.48
2023-02-08T21:55:37.394Z,18.88
2023-02-08T21:58:22.904Z,18.45
2023-02-08T22:01:08.466Z,17.55
2023-02-08T22:03:53.620Z,18.40
2023-02-08T22:06:39.088Z,18.10
2023-02-08T22:09:24.368Z,17.45
2023-02-08T22:12:18.537Z,19.33
2023-02-08T22:15:04.077Z,16.95
2023-02-08T22:18:00.481Z,18.77
2023-02-08T22:20:46.093Z,16.55
2023-02-08T22:23:31.846Z,16.92
2023-02-08T22:26:17.425Z,17.00
2023-02-08T22:29:02.913Z,19.08
2023-02-08T22:31:48.302Z,16.20
2023-02-08T22:34:33.513Z,17.25
2023-02-08T22:37:19.135Z,17.67
2023-02-08T22:40:05.448Z,17.50
2023-02-08T22:42:50.585Z,17.00
2023-02-08T22:45:35.974Z,18.15
2023-02-08T22:48:21.341Z,17.75
2023-02-08T22:51:08.527Z,18.20
2023-02-08T22:53:55.841Z,18.40
2023-02-08T22:56:41.076Z,18.70
2023-02-08T22:59:26.656Z,17.77
2023-02-08T23:02:11.810Z,17.95
2023-02-08T23:04:57.178Z,17.95
2023-02-08T23:07:42.586Z,17.38
2023-02-08T23:10:27.962Z,17.70
2023-02-08T23:13:13.547Z,18.00
2023-02-08T23:15:58.919Z,16.63
2023-02-08T23:18:45.279Z,18.75
2023-02-08T23:21:31.239Z,16.85
2023-02-08T23:24:16.276Z,17.85
2023-02-08T23:27:01.718Z,18.35
2023-02-08T23:29:47.101Z,17.42
2023-02-08T23:32:32.436Z,18.05
2023-02-08T23:35:17.838Z,17.13
2023-02-08T23:38:02.999Z,17.88
2023-02-08T23:40:48.556Z,17.02
2023-02-08T23:43:33.622Z,17.13
2023-02-08T23:46:22.856Z,17.13
2023-02-08T23:49:08.125Z,17.42
2023-02-08T23:51:53.561Z,17.73
2023-02-08T23:54:38.805Z,17.50
2023-02-08T23:57:23.908Z,16.50
